sensor_id;sensor_type;location;lat;lon;timestamp;temperature;humidity
10143;DHT22;5112;54.088;13.446;2022-11-15T00:07:56;6.90;99.90
10143;DHT22;5112;54.088;13.446;2022-11-15T00:17:58;6.80;99.90
10143;DHT22;5112;54.088;13.446;2022-11-15T00:28:01;6.90;99.90
10143;DHT22;5112;54.088;13.446;2022-11-15T00:38:03;6.80;99.90
10143;DHT22;5112;54.088;13.446;2022-11-15T00:48:07;6.80;99.90
10143;DHT22;5112;54.088;13.446;2022-11-15T00:58:09;6.80;99.90
10143;DHT22;5112;54.088;13.446;2022-11-15T01:08:14;6.80;99.90
10143;DHT22;5112;54.088;13.446;2022-11-15T01:18:15;6.80;99.90
10143;DHT22;5112;54.088;13.446;2022-11-15T01:28:18;6.90;99.90
10143;DHT22;5112;54.088;13.446;2022-11-15T01:38:20;6.70;99.90
10143;DHT22;5112;54.088;13.446;2022-11-15T01:48:27;6.70;99.90
10143;DHT22;5112;54.088;13.446;2022-11-15T01:58:30;6.80;99.90
10143;DHT22;5112;54.088;13.446;2022-11-15T02:08:34;6.70;99.90
10143;DHT22;5112;54.088;13.446;2022-11-15T02:18:38;6.70;99.90
10143;DHT22;5112;54.088;13.446;2022-11-15T02:28:53;6.60;99.90
10143;DHT22;5112;54.088;13.446;2022-11-15T02:39:05;6.60;99.90
10143;DHT22;5112;54.088;13.446;2022-11-15T02:49:10;6.70;99.90
10143;DHT22;5112;54.088;13.446;2022-11-15T02:59:25;6.70;99.90
10143;DHT22;5112;54.088;13.446;2022-11-15T03:09:34;6.60;99.90
10143;DHT22;5112;54.088;13.446;2022-11-15T03:19:42;6.60;99.90
10143;DHT22;5112;54.088;13.446;2022-11-15T03:29:47;6.50;99.90
10143;DHT22;5112;54.088;13.446;2022-11-15T03:39:52;6.60;99.90
10143;DHT22;5112;54.088;13.446;2022-11-15T03:49:58;6.60;99.90
10143;DHT22;5112;54.088;13.446;2022-11-15T04:00:03;6.50;99.90
10143;DHT22;5112;54.088;13.446;2022-11-15T04:10:06;6.50;99.90
10143;DHT22;5112;54.088;13.446;2022-11-15T04:20:12;6.50;99.90
10143;DHT22;5112;54.088;13.446;2022-11-15T04:30:31;6.60;99.90
10143;DHT22;5112;54.088;13.446;2022-11-15T04:40:35;6.50;99.90
10143;DHT22;5112;54.088;13.446;2022-11-15T04:50:37;6.40;99.90
10143;DHT22;5112;54.088;13.446;2022-11-15T05:00:40;6.40;99.90
10143;DHT22;5112;54.088;13.446;2022-11-15T05:10:41;6.50;99.90
10143;DHT22;5112;54.088;13.446;2022-11-15T05:20:44;6.50;99.90
10143;DHT22;5112;54.088;13.446;2022-11-15T05:30:46;6.50;99.90
10143;DHT22;5112;54.088;13.446;2022-11-15T05:40:49;6.50;99.90
10143;DHT22;5112;54.088;13.446;2022-11-15T05:50:51;6.50;99.90
10143;DHT22;5112;54.088;13.446;2022-11-15T06:00:55;6.60;99.90
10143;DHT22;5112;54.088;13.446;2022-11-15T06:11:02;6.50;99.90
10143;DHT22;5112;54.088;13.446;2022-11-15T06:21:05;6.60;99.90
10143;DHT22;5112;54.088;13.446;2022-11-15T06:31:09;6.50;99.90
10143;DHT22;5112;54.088;13.446;2022-11-15T06:41:13;6.50;99.90
10143;DHT22;5112;54.088;13.446;2022-11-15T06:51:17;6.40;99.90
10143;DHT22;5112;54.088;13.446;2022-11-15T07:01:20;6.40;99.90
10143;DHT22;5112;54.088;13.446;2022-11-15T07:11:22;6.40;99.90
10143;DHT22;5112;54.088;13.446;2022-11-15T07:21:25;6.30;99.90
10143;DHT22;5112;54.088;13.446;2022-11-15T07:31:26;6.30;99.90
10143;DHT22;5112;54.088;13.446;2022-11-15T07:41:30;6.40;99.90
10143;DHT22;5112;54.088;13.446;2022-11-15T07:51:31;6.40;99.90
10143;DHT22;5112;54.088;13.446;2022-11-15T08:01:34;6.40;99.90
10143;DHT22;5112;54.088;13.446;2022-11-15T08:11:36;6.40;99.90
10143;DHT22;5112;54.088;13.446;2022-11-15T08:21:39;6.40;99.90
10143;DHT22;5112;54.088;13.446;2022-11-15T08:31:41;6.30;99.90
10143;DHT22;5112;54.088;13.446;2022-11-15T08:41:44;6.40;99.90
10143;DHT22;5112;54.088;13.446;2022-11-15T08:51:45;6.40;99.90
10143;DHT22;5112;54.088;13.446;2022-11-15T09:01:49;6.50;99.90
10143;DHT22;5112;54.088;13.446;2022-11-15T09:11:50;6.60;99.90
10143;DHT22;5112;54.088;13.446;2022-11-15T09:21:53;6.70;99.90
10143;DHT22;5112;54.088;13.446;2022-11-15T09:31:55;6.70;99.90
10143;DHT22;5112;54.088;13.446;2022-11-15T09:42:17;6.80;99.90
10143;DHT22;5112;54.088;13.446;2022-11-15T09:52:21;6.90;99.90
10143;DHT22;5112;54.088;13.446;2022-11-15T10:02:47;6.90;99.90
10143;DHT22;5112;54.088;13.446;2022-11-15T10:12:52;7.00;99.90
10143;DHT22;5112;54.088;13.446;2022-11-15T10:22:58;7.00;99.90
10143;DHT22;5112;54.088;13.446;2022-11-15T10:33:11;7.10;99.90
10143;DHT22;5112;54.088;13.446;2022-11-15T10:43:18;7.30;99.90
10143;DHT22;5112;54.088;13.446;2022-11-15T10:53:30;7.20;99.90
10143;DHT22;5112;54.088;13.446;2022-11-15T11:03:35;7.50;99.90
10143;DHT22;5112;54.088;13.446;2022-11-15T11:13:39;7.50;99.90
10143;DHT22;5112;54.088;13.446;2022-11-15T11:23:51;7.40;99.90
10143;DHT22;5112;54.088;13.446;2022-11-15T11:34:02;7.20;99.90
10143;DHT22;5112;54.088;13.446;2022-11-15T11:44:17;7.20;99.90
10143;DHT22;5112;54.088;13.446;2022-11-15T11:54:22;7.40;99.90
10143;DHT22;5112;54.088;13.446;2022-11-15T12:04:30;7.30;99.90
10143;DHT22;5112;54.088;13.446;2022-11-15T12:14:38;7.40;99.90
10143;DHT22;5112;54.088;13.446;2022-11-15T12:24:45;7.50;99.90
10143;DHT22;5112;54.088;13.446;2022-11-15T12:34:49;7.50;99.90
10143;DHT22;5112;54.088;13.446;2022-11-15T12:44:59;7.40;99.90
10143;DHT22;5112;54.088;13.446;2022-11-15T12:55:03;7.60;99.90
10143;DHT22;5112;54.088;13.446;2022-11-15T13:05:53;7.60;99.90
10143;DHT22;5112;54.088;13.446;2022-11-15T13:15:57;7.60;99.90
10143;DHT22;5112;54.088;13.446;2022-11-15T13:26:08;7.70;99.90
10143;DHT22;5112;54.088;13.446;2022-11-15T13:36:15;7.80;99.90
10143;DHT22;5112;54.088;13.446;2022-11-15T13:46:20;7.90;99.90
10143;DHT22;5112;54.088;13.446;2022-11-15T13:56:22;8.00;99.90
10143;DHT22;5112;54.088;13.446;2022-11-15T14:06:28;8.00;99.90
10143;DHT22;5112;54.088;13.446;2022-11-15T14:16:34;8.10;99.90
10143;DHT22;5112;54.088;13.446;2022-11-15T14:26:37;8.10;99.90
10143;DHT22;5112;54.088;13.446;2022-11-15T14:36:39;8.10;99.90
10143;DHT22;5112;54.088;13.446;2022-11-15T14:46:43;8.10;99.90
10143;DHT22;5112;54.088;13.446;2022-11-15T14:56:45;8.00;99.90
10143;DHT22;5112;54.088;13.446;2022-11-15T15:06:48;7.90;99.90
10143;DHT22;5112;54.088;13.446;2022-11-15T15:16:50;7.90;99.90
10143;DHT22;5112;54.088;13.446;2022-11-15T15:26:53;7.90;99.90
10143;DHT22;5112;54.088;13.446;2022-11-15T15:37:07;8.00;99.90
10143;DHT22;5112;54.088;13.446;2022-11-15T15:47:11;7.90;99.90
10143;DHT22;5112;54.088;13.446;2022-11-15T15:57:14;8.00;99.90
10143;DHT22;5112;54.088;13.446;2022-11-15T16:07:21;8.10;99.90
10143;DHT22;5112;54.088;13.446;2022-11-15T16:17:26;8.10;99.90
10143;DHT22;5112;54.088;13.446;2022-11-15T16:27:30;8.20;99.90
10143;DHT22;5112;54.088;13.446;2022-11-15T16:37:32;8.20;99.90
10143;DHT22;5112;54.088;13.446;2022-11-15T16:47:35;8.30;99.90
10143;DHT22;5112;54.088;13.446;2022-11-15T16:57:37;8.20;99.90
10143;DHT22;5112;54.088;13.446;2022-11-15T17:07:41;8.30;99.90
10143;DHT22;5112;54.088;13.446;2022-11-15T17:17:43;8.30;99.90
10143;DHT22;5112;54.088;13.446;2022-11-15T17:27:46;8.30;99.90
10143;DHT22;5112;54.088;13.446;2022-11-15T17:37:48;8.40;99.90
10143;DHT22;5112;54.088;13.446;2022-11-15T17:47:51;8.50;99.90
10143;DHT22;5112;54.088;13.446;2022-11-15T17:57:53;8.40;99.90
10143;DHT22;5112;54.088;13.446;2022-11-15T18:07:56;8.30;99.90
10143;DHT22;5112;54.088;13.446;2022-11-15T18:17:58;8.30;99.90
10143;DHT22;5112;54.088;13.446;2022-11-15T18:28:01;8.30;99.90
10143;DHT22;5112;54.088;13.446;2022-11-15T18:38:03;8.40;99.90
10143;DHT22;5112;54.088;13.446;2022-11-15T18:48:06;8.50;99.90
10143;DHT22;5112;54.088;13.446;2022-11-15T18:58:07;8.60;99.90
10143;DHT22;5112;54.088;13.446;2022-11-15T19:08:10;8.60;99.90
10143;DHT22;5112;54.088;13.446;2022-11-15T19:18:13;8.70;99.90
10143;DHT22;5112;54.088;13.446;2022-11-15T19:28:18;8.70;99.90
10143;DHT22;5112;54.088;13.446;2022-11-15T19:38:20;8.70;99.90
10143;DHT22;5112;54.088;13.446;2022-11-15T19:48:24;8.60;99.90
10143;DHT22;5112;54.088;13.446;2022-11-15T19:58:26;8.70;99.90
10143;DHT22;5112;54.088;13.446;2022-11-15T20:08:30;8.60;99.90
10143;DHT22;5112;54.088;13.446;2022-11-15T20:18:32;8.60;99.90
10143;DHT22;5112;54.088;13.446;2022-11-15T20:28:36;8.50;99.90
10143;DHT22;5112;54.088;13.446;2022-11-15T20:38:39;8.60;99.90
10143;DHT22;5112;54.088;13.446;2022-11-15T20:48:42;8.60;99.90
10143;DHT22;5112;54.088;13.446;2022-11-15T20:58:44;8.70;99.90
10143;DHT22;5112;54.088;13.446;2022-11-15T21:08:47;8.70;99.90
10143;DHT22;5112;54.088;13.446;2022-11-15T21:19:07;8.70;99.90
10143;DHT22;5112;54.088;13.446;2022-11-15T21:29:10;8.50;99.90
10143;DHT22;5112;54.088;13.446;2022-11-15T21:39:16;8.40;99.90
10143;DHT22;5112;54.088;13.446;2022-11-15T21:49:20;8.40;99.90
10143;DHT22;5112;54.088;13.446;2022-11-15T21:59:21;8.40;99.90
10143;DHT22;5112;54.088;13.446;2022-11-15T22:09:24;8.40;99.90
10143;DHT22;5112;54.088;13.446;2022-11-15T22:19:26;8.30;99.90
10143;DHT22;5112;54.088;13.446;2022-11-15T22:29:29;8.30;99.90
10143;DHT22;5112;54.088;13.446;2022-11-15T22:39:31;8.10;99.90
10143;DHT22;5112;54.088;13.446;2022-11-15T22:49:34;7.90;99.90
10143;DHT22;5112;54.088;13.446;2022-11-15T22:59:36;8.00;99.90
10143;DHT22;5112;54.088;13.446;2022-11-15T23:09:39;8.10;99.90
10143;DHT22;5112;54.088;13.446;2022-11-15T23:19:40;8.00;99.90
10143;DHT22;5112;54.088;13.446;2022-11-15T23:29:43;8.00;99.90
10143;DHT22;5112;54.088;13.446;2022-11-15T23:40:03;7.90;99.90
10143;DHT22;5112;54.088;13.446;2022-11-15T23:50:07;7.90;99.90
